Time;durP1;ratioP1;P1;durP2;ratioP2;P2;SDS_P1;SDS_P2;PMS_P1;PMS_P2;Temp;Humidity;BMP_temperature;BMP_pressure;BME280_temperature;BME280_humidity;BME280_pressure;Samples;Min_cycle;Max_cycle;Signal;HPM_P1;HPM_P2
2021/09/26 00:00:56;;;;;;;19.15;14.20;;;16.00;99.90;;;;;;5053335;28;20430;-77
2021/09/26 00:03:25;;;;;;;22.52;16.58;;;16.00;99.90;;;;;;5053829;28;20036;-77
2021/09/26 00:05:50;;;;;;;23.00;14.85;;;16.10;99.90;;;;;;5053643;28;20031;-77
2021/09/26 00:08:16;;;;;;;20.65;14.85;;;16.10;99.90;;;;;;5052987;28;20040;-78
2021/09/26 00:10:41;;;;;;;18.88;15.20;;;16.10;99.90;;;;;;5053723;28;20461;-77
2021/09/26 00:13:07;;;;;;;28.30;16.20;;;16.10;99.90;;;;;;5053465;28;20047;-78
2021/09/26 00:15:33;;;;;;;23.52;15.88;;;16.10;99.90;;;;;;5052983;28;20049;-77
2021/09/26 00:17:59;;;;;;;20.60;14.32;;;16.10;99.90;;;;;;5053523;28;20025;-77
2021/09/26 00:20:25;;;;;;;18.60;15.10;;;16.10;99.90;;;;;;5053424;28;20017;-76
2021/09/26 00:22:54;;;;;;;21.02;14.95;;;16.10;99.90;;;;;;5052813;28;20112;-77
2021/09/26 00:25:20;;;;;;;20.35;15.30;;;16.10;99.90;;;;;;5053454;28;20029;-77
2021/09/26 00:27:47;;;;;;;25.77;16.30;;;16.00;99.90;;;;;;5053076;28;20205;-77
2021/09/26 00:30:14;;;;;;;25.70;17.52;;;16.10;99.90;;;;;;5052474;28;20496;-78
2021/09/26 00:32:40;;;;;;;21.58;14.98;;;16.10;99.90;;;;;;5053394;28;20040;-77
2021/09/26 00:35:07;;;;;;;22.55;15.20;;;16.10;99.90;;;;;;5053081;28;20032;-77
2021/09/26 00:37:32;;;;;;;25.52;17.02;;;16.10;99.90;;;;;;5052789;28;20028;-77
2021/09/26 00:39:58;;;;;;;19.38;15.25;;;16.10;99.90;;;;;;5053123;28;20104;-77
2021/09/26 00:42:23;;;;;;;19.10;14.90;;;16.10;99.90;;;;;;5052832;28;20052;-77
2021/09/26 00:44:49;;;;;;;21.95;15.32;;;16.10;99.90;;;;;;5052292;28;20485;-77
2021/09/26 00:47:15;;;;;;;26.27;16.13;;;16.00;99.90;;;;;;5052916;28;20051;-77
2021/09/26 00:49:41;;;;;;;22.60;15.48;;;16.00;99.90;;;;;;5053121;28;20174;-77
2021/09/26 00:52:07;;;;;;;23.15;15.57;;;16.90;99.90;;;;;;5051528;28;20052;-77
2021/09/26 00:54:35;;;;;;;19.73;14.63;;;16.00;99.90;;;;;;5052804;28;20104;-77
2021/09/26 00:57:02;;;;;;;21.38;16.30;;;16.30;99.90;;;;;;5052417;28;20115;-78
2021/09/26 00:59:27;;;;;;;19.05;15.85;;;15.90;99.90;;;;;;5053229;28;20025;-77
2021/09/26 01:01:53;;;;;;;27.10;15.98;;;15.90;99.90;;;;;;5053005;28;20013;-78
2021/09/26 01:04:19;;;;;;;21.45;15.80;;;15.90;99.90;;;;;;5052735;28;20032;-77
2021/09/26 01:06:58;;;;;;;21.25;15.45;;;15.80;99.90;;;;;;5052751;28;20508;-78
2021/09/26 01:09:56;;;;;;;17.75;14.95;;;15.80;99.90;;;;;;5052861;28;20422;-78
2021/09/26 01:12:49;;;;;;;20.33;15.38;;;15.80;99.90;;;;;;5052287;28;20029;-76
2021/09/26 01:15:42;;;;;;;24.48;16.58;;;15.80;99.90;;;;;;5052629;28;20037;-77
2021/09/26 01:18:17;;;;;;;21.00;14.50;;;15.80;99.90;;;;;;5052148;28;20025;-77
2021/09/26 01:21:07;;;;;;;25.48;17.38;;;15.80;99.90;;;;;;5052849;28;20038;-77
2021/09/26 01:24:06;;;;;;;24.00;16.08;;;15.70;99.90;;;;;;5052897;28;20025;-78
2021/09/26 01:27:04;;;;;;;22.52;16.65;;;15.70;99.90;;;;;;5052155;28;20040;-78
2021/09/26 01:29:32;;;;;;;24.48;16.77;;;15.70;99.90;;;;;;5053189;28;20032;-78
2021/09/26 01:32:05;;;;;;;28.42;17.00;;;15.70;99.90;;;;;;5052626;28;20025;-77
2021/09/26 01:34:49;;;;;;;20.10;15.57;;;15.70;99.90;;;;;;5052581;28;20044;-76
2021/09/26 01:37:30;;;;;;;19.83;15.98;;;15.70;99.90;;;;;;5052801;28;20025;-79
2021/09/26 01:40:06;;;;;;;19.13;15.43;;;15.70;99.90;;;;;;5051771;28;20032;-78
2021/09/26 01:42:58;;;;;;;21.05;16.88;;;15.70;99.90;;;;;;5052262;28;20115;-77
2021/09/26 01:45:34;;;;;;;22.80;16.90;;;15.70;99.90;;;;;;5052556;28;20108;-77
2021/09/26 01:48:08;;;;;;;22.75;16.35;;;15.70;99.90;;;;;;5052274;28;20029;-77
2021/09/26 01:50:36;;;;;;;25.50;17.58;;;15.70;99.90;;;;;;5052823;28;20030;-77
2021/09/26 01:53:04;;;;;;;24.00;16.05;;;15.70;99.90;;;;;;5052376;28;20048;-78
2021/09/26 01:55:31;;;;;;;21.20;15.43;;;14.40;99.90;;;;;;5051981;28;20031;-77
2021/09/26 01:57:58;;;;;;;20.58;16.13;;;15.80;99.90;;;;;;5052499;28;20025;-77
2021/09/26 02:00:24;;;;;;;24.42;17.00;;;15.70;99.90;;;;;;5051502;28;20025;-77
2021/09/26 02:02:51;;;;;;;23.30;17.25;;;15.70;99.90;;;;;;5054363;28;20036;-78
2021/09/26 02:05:18;;;;;;;23.15;16.00;;;15.70;99.90;;;;;;5056297;28;20060;-77
2021/09/26 02:07:46;;;;;;;21.80;16.83;;;15.70;99.90;;;;;;5055457;28;20555;-79
2021/09/26 02:10:13;;;;;;;24.85;15.82;;;15.70;99.90;;;;;;5056057;28;20139;-77
2021/09/26 02:12:40;;;;;;;22.67;16.98;;;15.70;99.90;;;;;;5055960;28;20021;-76
2021/09/26 02:15:10;;;;;;;21.65;15.98;;;15.70;99.90;;;;;;5055175;28;20070;-76
2021/09/26 02:17:41;;;;;;;22.23;17.25;;;15.70;99.90;;;;;;5055957;28;20104;-77
2021/09/26 02:20:08;;;;;;;22.08;16.10;;;15.60;99.90;;;;;;5055609;28;20035;-77
2021/09/26 02:22:36;;;;;;;22.80;17.25;;;15.60;99.90;;;;;;5055219;28;20025;-77
2021/09/26 02:25:07;;;;;;;20.05;15.77;;;15.60;99.90;;;;;;5055950;28;20108;-76
2021/09/26 02:27:33;;;;;;;24.70;16.17;;;15.50;99.90;;;;;;5055686;28;20033;-76
2021/09/26 02:29:59;;;;;;;20.95;15.98;;;15.50;99.90;;;;;;5054925;28;20037;-76
2021/09/26 02:32:25;;;;;;;24.52;16.38;;;15.50;99.90;;;;;;5055851;28;20539;-76
2021/09/26 02:34:50;;;;;;;23.13;17.13;;;15.50;99.90;;;;;;5055380;28;20066;-76
2021/09/26 02:37:16;;;;;;;23.75;17.48;;;15.60;99.90;;;;;;5054955;28;20078;-77
2021/09/26 02:39:42;;;;;;;24.02;16.55;;;15.60;99.90;;;;;;5055365;28;20449;-77
2021/09/26 02:42:31;;;;;;;25.70;15.82;;;15.60;99.90;;;;;;5055128;28;20089;-77
2021/09/26 02:45:03;;;;;;;22.77;15.93;;;15.70;99.90;;;;;;5055336;28;20048;-77
2021/09/26 02:47:42;;;;;;;27.08;16.80;;;15.70;99.90;;;;;;5055391;28;20037;-78
2021/09/26 02:50:08;;;;;;;23.63;15.70;;;15.80;99.90;;;;;;5054845;28;20031;-77
2021/09/26 02:52:35;;;;;;;21.80;16.50;;;15.80;99.90;;;;;;5055210;28;20021;-78
2021/09/26 02:55:02;;;;;;;25.15;17.05;;;15.80;99.90;;;;;;5054870;28;20104;-77
2021/09/26 02:57:27;;;;;;;20.90;17.35;;;15.80;99.90;;;;;;5054171;28;20388;-78
2021/09/26 02:59:54;;;;;;;22.20;16.38;;;15.90;99.90;;;;;;5054949;28;20021;-78
2021/09/26 03:02:29;;;;;;;20.35;17.02;;;15.80;99.90;;;;;;5055823;28;20029;-78
2021/09/26 03:04:55;;;;;;;20.42;15.18;;;15.90;99.90;;;;;;5054158;28;20465;-78
2021/09/26 03:07:21;;;;;;;21.52;15.40;;;15.90;99.90;;;;;;5054950;28;20087;-79
2021/09/26 03:09:46;;;;;;;20.30;16.30;;;15.90;99.90;;;;;;5054960;28;20491;-78
2021/09/26 03:12:17;;;;;;;21.48;15.65;;;15.90;99.90;;;;;;5054052;28;20021;-78
2021/09/26 03:14:43;;;;;;;20.98;15.90;;;15.90;99.90;;;;;;5054199;28;20048;-77
2021/09/26 03:17:08;;;;;;;23.10;16.85;;;15.90;99.90;;;;;;5054856;28;20053;-77
2021/09/26 03:19:34;;;;;;;22.75;17.23;;;15.90;99.90;;;;;;5053980;28;20044;-78
2021/09/26 03:22:04;;;;;;;19.55;16.48;;;15.90;99.90;;;;;;5054551;28;20469;-76
2021/09/26 03:24:31;;;;;;;23.95;16.63;;;15.90;99.90;;;;;;5054537;28;20056;-76
2021/09/26 03:27:00;;;;;;;18.60;15.13;;;15.90;99.90;;;;;;5054007;28;20048;-76
2021/09/26 03:29:25;;;;;;;28.02;17.15;;;15.90;99.90;;;;;;5055063;28;20488;-77
2021/09/26 03:31:51;;;;;;;19.23;15.80;;;15.90;99.90;;;;;;5052726;28;20063;-77
2021/09/26 03:34:17;;;;;;;26.63;17.73;;;15.90;99.90;;;;;;5055126;28;20361;-77
2021/09/26 03:36:42;;;;;;;22.95;17.50;;;15.90;99.90;;;;;;5054389;28;20040;-77
2021/09/26 03:39:08;;;;;;;23.77;16.98;;;15.90;99.90;;;;;;5053524;28;20100;-77
2021/09/26 03:41:33;;;;;;;26.73;17.73;;;15.90;99.90;;;;;;5054463;28;20080;-79
2021/09/26 03:43:59;;;;;;;21.77;17.02;;;15.90;99.90;;;;;;5054061;28;20032;-77
2021/09/26 03:46:24;;;;;;;19.88;15.70;;;15.90;99.90;;;;;;5053624;28;20109;-78
2021/09/26 03:48:51;;;;;;;27.77;17.02;;;15.90;99.90;;;;;;5054220;28;20032;-77
2021/09/26 03:51:16;;;;;;;23.50;17.00;;;15.90;99.90;;;;;;5054024;28;20096;-78
2021/09/26 03:53:42;;;;;;;20.67;16.77;;;15.90;99.90;;;;;;5053222;28;20029;-77
2021/09/26 03:56:07;;;;;;;23.23;16.67;;;15.90;99.90;;;;;;5054064;28;20032;-78
2021/09/26 03:58:33;;;;;;;19.90;16.08;;;15.90;99.90;;;;;;5054776;28;20020;-78
2021/09/26 04:00:59;;;;;;;22.30;16.63;;;15.80;99.90;;;;;;5053443;28;20381;-77
2021/09/26 04:03:24;;;;;;;23.23;17.40;;;15.90;99.90;;;;;;5053719;28;20028;-78
2021/09/26 04:05:50;;;;;;;24.95;18.30;;;15.80;99.90;;;;;;5053781;28;20017;-80
2021/09/26 04:08:16;;;;;;;23.77;16.42;;;15.80;99.90;;;;;;5052999;28;20037;-79
2021/09/26 04:10:42;;;;;;;21.90;17.38;;;15.80;99.90;;;;;;5053647;28;20603;-77
2021/09/26 04:13:08;;;;;;;26.02;17.83;;;15.80;99.90;;;;;;5053715;28;20128;-78
2021/09/26 04:15:33;;;;;;;25.65;18.17;;;15.80;99.90;;;;;;5052828;28;20040;-78
2021/09/26 04:17:59;;;;;;;25.92;18.65;;;15.80;99.90;;;;;;5053614;28;20024;-78
2021/09/26 04:20:24;;;;;;;24.02;17.85;;;15.80;99.90;;;;;;5053596;28;20028;-77
2021/09/26 04:22:50;;;;;;;23.50;18.48;;;15.80;99.90;;;;;;5052754;28;20025;-75
2021/09/26 04:25:16;;;;;;;24.33;17.63;;;15.70;99.90;;;;;;5053275;28;20413;-74
2021/09/26 04:27:41;;;;;;;24.70;17.55;;;15.80;99.90;;;;;;5053499;28;20036;-76
2021/09/26 04:30:08;;;;;;;26.88;17.52;;;15.80;99.90;;;;;;5052760;28;20021;-75
2021/09/26 04:32:34;;;;;;;24.17;17.60;;;15.80;99.90;;;;;;5053287;28;20025;-77
2021/09/26 04:35:00;;;;;;;28.45;18.55;;;15.80;99.90;;;;;;5053094;28;20027;-75
2021/09/26 04:37:25;;;;;;;27.55;19.63;;;15.80;99.90;;;;;;5053393;28;20033;-76
2021/09/26 04:39:51;;;;;;;25.38;19.80;;;15.80;99.90;;;;;;5051901;28;20029;-76
2021/09/26 04:42:16;;;;;;;24.92;19.50;;;15.80;99.90;;;;;;5052335;28;20060;-77
2021/09/26 04:44:42;;;;;;;26.60;18.38;;;15.90;99.90;;;;;;5052913;28;20021;-76
2021/09/26 04:47:08;;;;;;;27.67;18.42;;;15.90;99.90;;;;;;5053045;28;20041;-76
2021/09/26 04:49:34;;;;;;;30.00;19.10;;;15.80;99.90;;;;;;5052407;28;20055;-76
2021/09/26 04:52:00;;;;;;;28.40;18.77;;;15.90;99.90;;;;;;5052959;28;20108;-76
2021/09/26 04:54:26;;;;;;;27.05;19.48;;;15.90;99.90;;;;;;5052924;28;20028;-77
2021/09/26 04:56:53;;;;;;;25.92;18.92;;;15.90;99.90;;;;;;5052115;28;20481;-77
2021/09/26 04:59:19;;;;;;;21.40;18.45;;;15.90;99.90;;;;;;5053016;28;20021;-77
2021/09/26 05:01:45;;;;;;;25.58;18.42;;;15.90;99.90;;;;;;5053409;28;20032;-78
2021/09/26 05:04:11;;;;;;;23.95;18.58;;;15.90;99.90;;;;;;5052964;28;20017;-77
2021/09/26 05:06:37;;;;;;;29.60;20.27;;;15.90;99.90;;;;;;5053143;28;20511;-77
2021/09/26 05:09:03;;;;;;;30.05;21.73;;;15.80;99.90;;;;;;5052748;28;20021;-77
2021/09/26 05:11:28;;;;;;;31.15;20.52;;;15.90;99.90;;;;;;5052366;28;20502;-76
2021/09/26 05:13:55;;;;;;;27.33;19.98;;;15.90;99.90;;;;;;5053029;28;20060;-76
2021/09/26 05:16:27;;;;;;;26.83;20.80;;;15.90;99.90;;;;;;5053051;28;20028;-76
2021/09/26 05:18:52;;;;;;;29.55;21.42;;;15.90;99.90;;;;;;5052980;28;20029;-76
2021/09/26 05:21:18;;;;;;;26.83;19.77;;;15.90;99.90;;;;;;5053083;28;20384;-76
2021/09/26 05:23:44;;;;;;;28.70;20.15;;;15.90;99.90;;;;;;5052559;28;20025;-76
2021/09/26 05:26:09;;;;;;;30.75;20.75;;;15.80;99.90;;;;;;5051718;28;20036;-76
2021/09/26 05:28:35;;;;;;;26.15;20.23;;;15.80;99.90;;;;;;5052574;28;20040;-76
2021/09/26 05:31:01;;;;;;;27.70;20.58;;;15.80;99.90;;;;;;5052565;28;20082;-76
2021/09/26 05:33:28;;;;;;;28.13;20.58;;;15.90;99.90;;;;;;5051831;28;20029;-77
2021/09/26 05:35:56;;;;;;;28.08;20.60;;;15.80;99.90;;;;;;5052319;28;20035;-76
2021/09/26 05:38:23;;;;;;;31.63;21.15;;;15.80;99.90;;;;;;5054426;28;20025;-75
2021/09/26 05:40:48;;;;;;;34.70;20.50;;;15.90;99.90;;;;;;5055908;28;20056;-77
2021/09/26 05:43:14;;;;;;;30.17;21.67;;;15.90;99.90;;;;;;5056255;28;20033;-76
2021/09/26 05:45:39;;;;;;;26.25;20.20;;;15.90;99.90;;;;;;5055563;28;20055;-76
2021/09/26 05:48:05;;;;;;;25.98;20.50;;;15.90;99.90;;;;;;5056272;28;20033;-76
2021/09/26 05:50:31;;;;;;;27.10;20.42;;;15.80;99.90;;;;;;5056682;28;20021;-76
2021/09/26 05:52:57;;;;;;;28.70;20.17;;;15.90;99.90;;;;;;5058407;28;20512;-76
2021/09/26 05:55:22;;;;;;;34.50;21.02;;;15.90;99.90;;;;;;5056790;28;20373;-77
2021/09/26 05:57:48;;;;;;;34.08;21.75;;;15.90;99.90;;;;;;5056436;28;20031;-75
2021/09/26 06:00:14;;;;;;;30.33;21.00;;;15.90;99.90;;;;;;5055344;28;20412;-76
2021/09/26 06:02:39;;;;;;;25.25;18.95;;;15.90;99.90;;;;;;5056004;28;20067;-76
2021/09/26 06:05:07;;;;;;;23.27;20.00;;;15.90;99.90;;;;;;5055860;28;20029;-76
2021/09/26 06:07:33;;;;;;;31.60;21.23;;;15.90;99.90;;;;;;5055271;28;20114;-76
2021/09/26 06:10:00;;;;;;;26.48;21.08;;;15.90;99.90;;;;;;5056053;28;20087;-76
2021/09/26 06:12:25;;;;;;;26.52;19.85;;;16.00;99.90;;;;;;5056072;28;20029;-76
2021/09/26 06:14:51;;;;;;;26.17;20.98;;;16.00;99.90;;;;;;5055217;28;20373;-76
2021/09/26 06:17:16;;;;;;;27.75;21.70;;;16.00;99.90;;;;;;5055739;28;20060;-76
2021/09/26 06:19:42;;;;;;;25.95;19.92;;;16.00;99.90;;;;;;5055562;28;20017;-77
2021/09/26 06:22:08;;;;;;;30.05;20.83;;;16.00;99.90;;;;;;5055244;28;20033;-77
2021/09/26 06:24:33;;;;;;;29.02;20.35;;;16.00;99.90;;;;;;5055994;28;20021;-76
2021/09/26 06:26:59;;;;;;;28.08;20.13;;;16.00;99.90;;;;;;5055607;28;20033;-77
2021/09/26 06:29:24;;;;;;;30.48;21.00;;;16.00;99.90;;;;;;5054859;28;20101;-76
2021/09/26 06:31:50;;;;;;;36.08;21.85;;;16.00;99.90;;;;;;5055525;28;20025;-77
2021/09/26 06:34:16;;;;;;;24.77;18.95;;;16.00;99.90;;;;;;5055362;28;20025;-77
2021/09/26 06:36:42;;;;;;;29.08;19.27;;;16.00;99.90;;;;;;5054784;28;20033;-77
2021/09/26 06:39:08;;;;;;;28.15;20.42;;;16.00;99.90;;;;;;5054094;28;20029;-77
2021/09/26 06:41:33;;;;;;;33.38;21.02;;;16.10;99.90;;;;;;5055140;28;20571;-77
2021/09/26 06:44:01;;;;;;;26.75;20.65;;;16.10;99.90;;;;;;5054617;28;20047;-77
2021/09/26 06:46:26;;;;;;;28.05;21.52;;;16.10;99.90;;;;;;5055273;28;20047;-77
2021/09/26 06:48:52;;;;;;;26.70;19.90;;;16.10;99.90;;;;;;5053239;28;20481;-77
2021/09/26 06:51:20;;;;;;;27.77;20.67;;;16.10;99.90;;;;;;5055363;28;20405;-76
2021/09/26 06:53:46;;;;;;;32.22;21.17;;;16.10;99.90;;;;;;5055135;28;20136;-77
2021/09/26 06:56:11;;;;;;;28.10;21.17;;;16.20;99.90;;;;;;5054480;28;20026;-77
2021/09/26 06:58:37;;;;;;;30.27;20.88;;;16.20;99.90;;;;;;5055024;28;20098;-77
2021/09/26 07:01:03;;;;;;;28.77;21.30;;;16.20;99.90;;;;;;5054924;28;20021;-77
2021/09/26 07:03:29;;;;;;;26.35;20.88;;;16.30;99.90;;;;;;5054059;28;20143;-77
2021/09/26 07:05:54;;;;;;;27.90;22.95;;;16.30;99.90;;;;;;5055040;28;20063;-76
2021/09/26 07:08:20;;;;;;;29.75;20.63;;;16.40;99.90;;;;;;5054649;28;20456;-77
2021/09/26 07:10:45;;;;;;;29.77;21.20;;;16.40;99.90;;;;;;5054278;28;20025;-76
2021/09/26 07:13:11;;;;;;;30.17;21.65;;;16.50;99.90;;;;;;5054880;28;20025;-77
2021/09/26 07:15:37;;;;;;;28.20;21.58;;;16.50;99.90;;;;;;5054732;28;20021;-76
2021/09/26 07:18:03;;;;;;;26.48;19.75;;;16.60;99.90;;;;;;5053881;28;20032;-77
2021/09/26 07:20:32;;;;;;;25.95;19.73;;;16.60;99.90;;;;;;5054813;28;20041;-76
2021/09/26 07:22:58;;;;;;;26.00;19.75;;;16.60;99.90;;;;;;5054734;28;20116;-75
2021/09/26 07:25:24;;;;;;;27.67;20.60;;;16.60;99.90;;;;;;5053935;28;20025;-76
2021/09/26 07:27:50;;;;;;;29.05;19.73;;;16.60;99.90;;;;;;5054426;28;20040;-76
2021/09/26 07:30:16;;;;;;;27.27;21.40;;;16.70;99.90;;;;;;5054513;28;20444;-76
2021/09/26 07:32:41;;;;;;;33.90;21.98;;;16.70;99.90;;;;;;5053664;28;20024;-76
2021/09/26 07:35:07;;;;;;;24.30;20.50;;;16.70;99.90;;;;;;5054566;28;20468;-76
2021/09/26 07:37:33;;;;;;;28.40;21.42;;;16.70;99.90;;;;;;5054266;28;20029;-75
2021/09/26 07:39:59;;;;;;;31.20;21.38;;;16.80;99.90;;;;;;5053502;28;20162;-77
2021/09/26 07:42:24;;;;;;;29.10;20.38;;;16.90;99.90;;;;;;5054085;28;20132;-77
2021/09/26 07:44:50;;;;;;;27.30;21.55;;;16.90;99.90;;;;;;5054155;28;20021;-75
2021/09/26 07:47:15;;;;;;;30.02;20.45;;;17.00;99.90;;;;;;5053057;28;20108;-75
2021/09/26 07:49:41;;;;;;;28.63;21.48;;;17.00;99.90;;;;;;5054137;28;20040;-76
2021/09/26 07:52:07;;;;;;;32.47;23.42;;;17.00;99.90;;;;;;5053352;28;20033;-76
2021/09/26 07:54:32;;;;;;;26.88;20.70;;;17.20;99.90;;;;;;5053980;28;20506;-75
2021/09/26 07:56:59;;;;;;;28.67;20.95;;;17.30;99.90;;;;;;5053902;28;20029;-75
2021/09/26 07:59:25;;;;;;;29.10;21.85;;;17.40;99.90;;;;;;5053219;28;20111;-76
2021/09/26 08:01:50;;;;;;;27.10;22.25;;;17.50;99.90;;;;;;5053625;28;20044;-77
2021/09/26 08:04:16;;;;;;;24.90;20.58;;;17.70;99.90;;;;;;5054350;28;20021;-76
2021/09/26 08:06:42;;;;;;;25.58;20.90;;;17.80;99.90;;;;;;5053662;28;20378;-77
2021/09/26 08:09:08;;;;;;;27.08;20.40;;;18.00;99.90;;;;;;5053917;28;20115;-76
2021/09/26 08:11:34;;;;;;;28.70;22.45;;;18.00;99.90;;;;;;5054242;28;20108;-77
2021/09/26 08:14:00;;;;;;;28.23;22.13;;;18.10;99.90;;;;;;5054842;28;20025;-76
2021/09/26 08:16:26;;;;;;;28.67;21.45;;;18.20;99.90;;;;;;5059061;28;20025;-76
2021/09/26 08:18:51;;;;;;;29.25;21.70;;;18.30;99.90;;;;;;5056601;28;20417;-77
2021/09/26 08:21:17;;;;;;;27.35;20.73;;;18.40;99.90;;;;;;5053243;28;20366;-76
2021/09/26 08:23:42;;;;;;;22.17;19.70;;;18.40;99.90;;;;;;5053605;28;20055;-77
2021/09/26 08:26:08;;;;;;;24.55;19.17;;;18.40;99.90;;;;;;5053239;28;20020;-77
2021/09/26 08:28:33;;;;;;;30.55;21.60;;;18.30;99.90;;;;;;5052739;28;20033;-77
2021/09/26 08:30:59;;;;;;;27.02;21.23;;;18.30;99.90;;;;;;5053410;28;20029;-77
2021/09/26 08:33:25;;;;;;;24.23;19.33;;;18.50;99.90;;;;;;5054502;28;20032;-77
2021/09/26 08:35:51;;;;;;;34.35;22.30;;;18.40;99.90;;;;;;5053995;28;20055;-75
2021/09/26 08:38:17;;;;;;;25.05;20.48;;;18.30;99.90;;;;;;5054002;28;20029;-75
2021/09/26 08:40:42;;;;;;;27.90;20.45;;;18.40;99.90;;;;;;5053125;28;20025;-77
2021/09/26 08:43:09;;;;;;;26.10;20.02;;;18.50;99.90;;;;;;5052575;28;20029;-77
2021/09/26 08:45:39;;;;;;;26.58;20.75;;;18.60;99.90;;;;;;5053004;28;20029;-77
2021/09/26 08:48:06;;;;;;;25.48;21.08;;;18.70;99.90;;;;;;5053720;28;20037;-77
2021/09/26 08:50:32;;;;;;;24.83;21.25;;;18.80;99.90;;;;;;5052597;28;20112;-77
2021/09/26 08:52:58;;;;;;;23.77;20.15;;;18.90;99.90;;;;;;5053149;28;20409;-77
2021/09/26 08:55:24;;;;;;;25.55;21.02;;;19.00;99.90;;;;;;5052268;28;20166;-77
2021/09/26 08:57:49;;;;;;;23.92;20.35;;;19.10;99.90;;;;;;5052897;28;20139;-76
2021/09/26 09:00:16;;;;;;;22.65;20.15;;;19.20;99.90;;;;;;5052716;28;20048;-75
2021/09/26 09:02:45;;;;;;;25.92;21.65;;;19.30;99.90;;;;;;5052464;28;20163;-76
2021/09/26 09:05:27;;;;;;;59.63;34.60;;;19.40;99.90;;;;;;5052848;28;20445;-77
2021/09/26 09:08:18;;;;;;;41.22;37.72;;;19.50;99.90;;;;;;5052830;28;20043;-76
2021/09/26 09:10:53;;;;;;;26.10;22.02;;;19.50;99.90;;;;;;5051991;28;20055;-76
2021/09/26 09:13:30;;;;;;;21.88;19.27;;;19.60;99.90;;;;;;5052124;28;20041;-77
2021/09/26 09:16:02;;;;;;;27.35;22.00;;;19.70;99.90;;;;;;5053762;28;20021;-78
2021/09/26 09:18:43;;;;;;;28.83;19.83;;;19.80;99.90;;;;;;5052100;28;20025;-76
2021/09/26 09:21:21;;;;;;;25.00;20.42;;;19.80;99.90;;;;;;5052875;28;20082;-78
2021/09/26 09:23:47;;;;;;;24.92;20.70;;;19.80;99.90;;;;;;5052134;28;20071;-77
2021/09/26 09:26:13;;;;;;;23.25;19.33;;;19.90;99.90;;;;;;5052706;28;20052;-76
2021/09/26 09:28:41;;;;;;;25.95;20.75;;;19.90;99.90;;;;;;5052634;28;20072;-76
2021/09/26 09:31:09;;;;;;;21.88;19.50;;;20.00;99.90;;;;;;5051989;28;20397;-77
2021/09/26 09:33:40;;;;;;;25.05;19.98;;;20.00;99.90;;;;;;5052566;28;20595;-78
2021/09/26 09:36:21;;;;;;;24.30;19.35;;;20.10;99.90;;;;;;5052822;28;20104;-77
2021/09/26 09:38:49;;;;;;;23.45;18.15;;;20.10;99.90;;;;;;5051851;28;20515;-78
2021/09/26 09:41:35;;;;;;;26.48;18.65;;;20.10;99.90;;;;;;5052271;28;20060;-78
2021/09/26 09:44:02;;;;;;;22.75;19.83;;;20.10;99.90;;;;;;5052491;28;20029;-77
2021/09/26 09:46:33;;;;;;;22.80;19.55;;;20.20;99.90;;;;;;5051989;28;20025;-76
2021/09/26 09:49:19;;;;;;;22.02;19.73;;;20.20;99.90;;;;;;5052418;28;20519;-79
2021/09/26 09:52:04;;;;;;;28.63;21.55;;;20.20;99.90;;;;;;5051700;28;20504;-78
2021/09/26 09:54:39;;;;;;;28.58;20.85;;;20.30;99.90;;;;;;5052341;28;20021;-77
2021/09/26 09:57:15;;;;;;;28.05;19.90;;;20.40;99.90;;;;;;5052424;28;20051;-77
2021/09/26 09:59:44;;;;;;;23.00;18.65;;;20.40;99.90;;;;;;5051763;28;20045;-77
2021/09/26 10:02:10;;;;;;;22.13;19.63;;;20.60;99.90;;;;;;5052314;28;20041;-77
2021/09/26 10:04:41;;;;;;;22.42;19.98;;;20.70;99.90;;;;;;5052212;28;20085;-77
2021/09/26 10:07:41;;;;;;;25.50;20.15;;;20.90;99.90;;;;;;5051706;28;20124;-78
2021/09/26 10:10:15;;;;;;;23.98;20.33;;;21.00;99.90;;;;;;5044547;28;20033;-78
2021/09/26 10:12:40;;;;;;;23.98;18.75;;;21.20;99.90;;;;;;5051705;28;20037;-75
2021/09/26 10:15:06;;;;;;;27.63;22.02;;;21.40;99.90;;;;;;5052158;28;20218;-77
2021/09/26 10:17:32;;;;;;;24.40;20.60;;;21.40;99.90;;;;;;5052679;28;20078;-77
2021/09/26 10:19:57;;;;;;;26.20;21.70;;;21.50;99.90;;;;;;5051868;28;20025;-77
2021/09/26 10:22:24;;;;;;;25.02;21.48;;;21.50;99.90;;;;;;5052661;28;20024;-77
2021/09/26 10:24:52;;;;;;;26.20;22.45;;;21.50;99.90;;;;;;5055253;28;20037;-78
2021/09/26 10:27:22;;;;;;;28.95;23.17;;;21.60;99.90;;;;;;5054887;28;20163;-78
2021/09/26 10:30:09;;;;;;;29.23;22.25;;;21.70;99.90;;;;;;5055432;28;20071;-77
2021/09/26 10:32:36;;;;;;;24.67;20.40;;;21.70;99.90;;;;;;5055529;28;20116;-77
2021/09/26 10:35:02;;;;;;;26.17;19.77;;;21.70;99.90;;;;;;5054968;28;20025;-78
2021/09/26 10:37:29;;;;;;;24.17;19.25;;;21.80;99.90;;;;;;5055418;28;20025;-78
2021/09/26 10:39:55;;;;;;;24.52;19.23;;;21.80;99.90;;;;;;5055662;28;20029;-77
2021/09/26 10:42:33;;;;;;;27.25;19.17;;;21.80;99.90;;;;;;5054509;28;20052;-78
2021/09/26 10:45:03;;;;;;;24.38;19.38;;;21.90;99.90;;;;;;5055473;28;20495;-77
2021/09/26 10:47:30;;;;;;;24.27;19.15;;;22.00;99.90;;;;;;5054880;28;20045;-78
2021/09/26 10:50:02;;;;;;;20.83;17.55;;;22.00;99.90;;;;;;5054620;28;20083;-77
2021/09/26 10:52:44;;;;;;;21.95;17.67;;;22.10;99.90;;;;;;5053927;28;20122;-77
2021/09/26 10:55:17;;;;;;;22.17;18.15;;;22.20;99.90;;;;;;5054675;28;20388;-77
2021/09/26 10:57:47;;;;;;;20.45;18.35;;;22.20;99.90;;;;;;5055322;28;20029;-78
2021/09/26 11:00:31;;;;;;;23.20;17.55;;;22.20;99.90;;;;;;5055367;28;20021;-77
2021/09/26 11:03:13;;;;;;;22.73;19.45;;;22.30;99.90;;;;;;5054246;28;20591;-75
2021/09/26 11:05:50;;;;;;;21.55;17.35;;;22.40;99.90;;;;;;5055086;28;20021;-76
2021/09/26 11:08:24;;;;;;;19.65;17.55;;;22.40;99.90;;;;;;5054898;28;20037;-77
2021/09/26 11:10:58;;;;;;;22.23;17.05;;;22.50;99.90;;;;;;5054122;28;20013;-77
2021/09/26 11:13:38;;;;;;;19.42;17.40;;;22.50;99.90;;;;;;5054908;28;20492;-77
2021/09/26 11:16:13;;;;;;;22.67;15.30;;;22.50;99.90;;;;;;5054261;28;20029;-77
2021/09/26 11:19:02;;;;;;;19.45;14.50;;;22.50;99.90;;;;;;5054592;28;20040;-77
2021/09/26 11:21:37;;;;;;;14.35;12.93;;;22.60;99.90;;;;;;5054776;28;20388;-77
2021/09/26 11:24:05;;;;;;;16.10;13.88;;;22.60;99.90;;;;;;5054012;28;20025;-78
2021/09/26 11:27:07;;;;;;;14.40;13.00;;;22.60;99.90;;;;;;5055242;28;20025;-76
2021/09/26 11:29:39;;;;;;;13.40;12.10;;;22.60;99.90;;;;;;5054986;28;20099;-77
2021/09/26 11:32:34;;;;;;;13.32;12.02;;;22.60;99.90;;;;;;5055081;28;20025;-77
2021/09/26 11:35:03;;;;;;;15.38;13.65;;;22.50;99.90;;;;;;5056071;28;20087;-77
2021/09/26 11:37:37;;;;;;;15.13;13.63;;;22.60;99.90;;;;;;5054134;28;20021;-76
2021/09/26 11:40:07;;;;;;;17.95;13.77;;;22.60;99.90;;;;;;5054330;28;20033;-77
2021/09/26 11:42:37;;;;;;;16.27;14.50;;;22.60;99.90;;;;;;5054383;28;20111;-77
2021/09/26 11:45:11;;;;;;;16.80;14.77;;;22.70;99.90;;;;;;5054338;28;20032;-76
2021/09/26 11:47:36;;;;;;;15.05;13.43;;;22.70;99.90;;;;;;5055645;28;20121;-77
2021/09/26 11:50:12;;;;;;;19.67;14.27;;;22.70;99.90;;;;;;5056202;28;20056;-77
2021/09/26 11:52:43;;;;;;;19.15;15.55;;;22.70;99.90;;;;;;5053699;28;20039;-76
2021/09/26 11:55:12;;;;;;;21.58;16.42;;;22.80;99.90;;;;;;5053979;28;20053;-76
2021/09/26 11:57:37;;;;;;;16.77;14.80;;;22.70;99.90;;;;;;5053816;28;20067;-78
2021/09/26 12:00:05;;;;;;;21.20;16.02;;;22.80;99.90;;;;;;5053188;28;20052;-77
2021/09/26 12:02:34;;;;;;;20.70;15.30;;;22.80;99.90;;;;;;5053797;28;20025;-77
2021/09/26 12:05:00;;;;;;;18.85;15.32;;;22.80;99.90;;;;;;5053836;28;20376;-76
2021/09/26 12:07:32;;;;;;;18.20;15.93;;;22.90;99.90;;;;;;5052964;28;20063;-76
2021/09/26 12:09:58;;;;;;;24.10;15.25;;;22.90;99.90;;;;;;5053798;28;20078;-75
2021/09/26 12:12:29;;;;;;;18.83;15.55;;;22.90;99.90;;;;;;5053082;28;20028;-77
2021/09/26 12:15:12;;;;;;;19.70;16.88;;;23.00;99.90;;;;;;5053685;28;20064;-76
2021/09/26 12:17:38;;;;;;;18.83;15.80;;;23.00;99.90;;;;;;5053728;28;20033;-77
2021/09/26 12:20:11;;;;;;;22.95;16.30;;;23.00;99.90;;;;;;5052655;28;20028;-76
2021/09/26 12:22:38;;;;;;;20.80;17.50;;;23.10;99.90;;;;;;5053396;28;20473;-76
2021/09/26 12:25:07;;;;;;;21.50;17.25;;;23.10;99.90;;;;;;5053637;28;20036;-77
2021/09/26 12:27:49;;;;;;;16.67;15.00;;;23.10;99.90;;;;;;5052749;28;20037;-76
2021/09/26 12:30:22;;;;;;;18.08;15.25;;;23.10;99.90;;;;;;5053722;28;20021;-76
2021/09/26 12:33:06;;;;;;;16.25;14.65;;;23.10;99.90;;;;;;5053414;28;20029;-76
2021/09/26 12:35:42;;;;;;;15.18;13.63;;;23.10;99.90;;;;;;5052907;28;20423;-77
2021/09/26 12:38:20;;;;;;;15.20;13.63;;;23.20;99.90;;;;;;5053369;28;20037;-76